Date,TemperatureHighF,TemperatureAvgF,TemperatureLowF,DewpointHighF,DewpointAvgF,DewpointLowF,HumidityHigh,HumidityAvg,HumidityLow,PressureMaxIn,PressureMinIn,WindSpeedMaxMPH,WindSpeedAvgMPH,GustSpeedMaxMPH,PrecipitationSumIn
2013-5-1,89,76,71,76,66,62,85,73,47,29.90,29.82,12,0,12,0.16
2013-5-2,82,73,70,72,67,63,91,82,66,29.85,29.69,18,1,18,0.20
2013-5-3,93,78,69,78,65,58,89,68,34,29.73,29.60,12,1,12,0.33
2013-5-4,92,80,69,81,62,55,88,59,34,29.72,29.60,14,1,14,0.26
2013-5-5,84,76,68,66,57,46,81,56,30,29.85,29.68,12,2,12,0.00
2013-5-6,90,76,60,73,54,47,76,49,27,29.93,29.83,12,0,12,0.00
2013-5-7,89,77,65,61,54,48,78,48,26,29.98,29.88,14,1,14,0.00
2013-5-8,91,78,64,62,54,47,78,46,23,30.05,29.96,10,0,10,0.00
2013-5-9,92,80,67,68,61,52,75,55,36,30.05,29.97,12,1,12,0.00
2013-5-10,93,84,74,76,66,62,75,58,37,30.04,29.93,13,2,13,0.00
2013-5-11,93,82,74,76,68,63,83,63,42,29.98,29.89,12,1,12,0.45
2013-5-12,96,82,73,77,67,62,86,64,35,29.98,29.86,12,0,12,0.51
2013-5-13,92,81,72,75,65,57,86,61,39,30.00,29.90,11,1,11,0.29
2013-5-14,86,77,70,63,55,48,73,48,34,30.09,29.97,16,2,16,0.00
2013-5-15,86,76,67,71,55,50,72,49,31,30.10,30.00,14,2,14,0.00
2013-5-16,88,78,67,63,56,52,72,47,33,30.03,29.95,12,2,12,0.00
2013-5-17,92,80,70,71,63,58,75,57,36,30.00,29.92,16,1,16,0.00
2013-5-18,93,82,74,72,66,64,79,59,43,30.01,29.93,12,2,12,0.00
2013-5-19,91,82,72,72,64,58,81,56,36,30.01,29.91,12,2,12,0.00
2013-5-20,83,78,75,72,68,63,78,70,63,29.99,29.90,10,1,10,0.45
2013-5-21,87,81,77,68,66,64,71,61,49,29.89,29.84,12,2,12,0.57
2013-5-22,93,79,74,74,68,62,83,72,44,29.88,29.80,114,0,114,0.00
2013-5-23,94,84,73,78,67,58,88,60,31,29.92,29.82,14,1,14,0.00
2013-5-24,96,85,76,74,68,59,82,58,30,29.97,29.85,11,1,11,0.00
2013-5-25,88,82,76,71,63,0,79,54,37,30.07,29.95,19,4,19,0.00
2013-5-26,91,81,71,63,59,56,66,48,34,30.08,30.01,16,3,16,0.00
2013-5-27,87,80,75,69,65,58,79,60,47,30.06,29.97,17,4,17,0.04
2013-5-28,87,80,76,70,68,66,81,67,53,30.02,29.95,114,4,114,0.16
2013-5-29,84,77,72,72,68,62,87,74,59,30.00,29.93,21,3,21,0.53
2013-5-30,86,80,73,72,68,64,84,67,55,29.98,29.91,21,4,21,0.18
2013-5-31,88,81,76,73,69,66,82,68,51,29.96,29.90,16,3,16,0.08